Termas de Rio Hondo, Argentina
Current Conditions -  °F | °C
As of 11:00 AM on Friday 31 Oct 2014 (Local Time) from SANT Reporting Station
Broken Clouds Broken Clouds  
Wind Chill: 81°   Ceiling: 3000
Heat Index: 83°   Visibility: 6mi
Dew Point: 66°   Wind: 2mph
Humidity: 61%   Direction: 180°S
Pressure: 29.85"   Gusts: NA
Location:  27.5°S, 64.86°W
Report Text: SANT 311400Z 18002KT 9999 SCT025 BKN03027/19 Q1011
Loading
Personal Weather Stations






























Interactive Weather Map
Tropical Storm Tracking
New forecast layout! Learn more

10-Day Weather Forecast

Advertisements
Track Severe Weather on mobile